sensor_id;sensor_type;location;lat;lon;timestamp;P1;durP1;ratioP1;P2;durP2;ratioP2
65393;SDS011;52002;49.760;6.512;2023-07-02T00:00:50;4.20;;;1.20;;
65393;SDS011;52002;49.760;6.512;2023-07-02T00:03:16;5.30;;;1.90;;
65393;SDS011;52002;49.760;6.512;2023-07-02T00:05:43;2.80;;;1.10;;
65393;SDS011;52002;49.760;6.512;2023-07-02T00:08:08;2.10;;;1.30;;
65393;SDS011;52002;49.760;6.512;2023-07-02T00:10:34;3.30;;;1.70;;
65393;SDS011;52002;49.760;6.512;2023-07-02T00:12:59;4.90;;;2.30;;
65393;SDS011;52002;49.760;6.512;2023-07-02T00:15:24;3.00;;;1.40;;
65393;SDS011;52002;49.760;6.512;2023-07-02T00:17:50;2.20;;;1.20;;
65393;SDS011;52002;49.760;6.512;2023-07-02T00:20:15;4.20;;;1.40;;
65393;SDS011;52002;49.760;6.512;2023-07-02T00:22:42;5.40;;;1.50;;
65393;SDS011;52002;49.760;6.512;2023-07-02T00:25:10;3.90;;;1.10;;
65393;SDS011;52002;49.760;6.512;2023-07-02T00:27:35;5.10;;;1.50;;
65393;SDS011;52002;49.760;6.512;2023-07-02T00:30:00;6.60;;;1.40;;
65393;SDS011;52002;49.760;6.512;2023-07-02T00:32:26;8.70;;;1.60;;
65393;SDS011;52002;49.760;6.512;2023-07-02T00:34:51;8.40;;;2.40;;
65393;SDS011;52002;49.760;6.512;2023-07-02T00:37:16;7.80;;;1.60;;
65393;SDS011;52002;49.760;6.512;2023-07-02T00:39:42;5.80;;;1.80;;
65393;SDS011;52002;49.760;6.512;2023-07-02T00:42:07;2.80;;;1.40;;
65393;SDS011;52002;49.760;6.512;2023-07-02T00:44:33;3.40;;;1.70;;
65393;SDS011;52002;49.760;6.512;2023-07-02T00:47:05;7.90;;;1.70;;
65393;SDS011;52002;49.760;6.512;2023-07-02T00:49:33;6.20;;;1.60;;
65393;SDS011;52002;49.760;6.512;2023-07-02T00:51:58;5.30;;;1.50;;
65393;SDS011;52002;49.760;6.512;2023-07-02T00:54:24;4.60;;;1.80;;
65393;SDS011;52002;49.760;6.512;2023-07-02T00:56:53;3.10;;;1.60;;
65393;SDS011;52002;49.760;6.512;2023-07-02T00:59:19;2.70;;;1.80;;
65393;SDS011;52002;49.760;6.512;2023-07-02T01:01:45;7.90;;;2.50;;
65393;SDS011;52002;49.760;6.512;2023-07-02T01:04:16;3.50;;;1.90;;
65393;SDS011;52002;49.760;6.512;2023-07-02T01:06:43;3.00;;;2.00;;
65393;SDS011;52002;49.760;6.512;2023-07-02T01:09:09;5.90;;;1.80;;
65393;SDS011;52002;49.760;6.512;2023-07-02T01:14:06;9.30;;;2.10;;
65393;SDS011;52002;49.760;6.512;2023-07-02T01:16:37;5.10;;;2.20;;
65393;SDS011;52002;49.760;6.512;2023-07-02T01:19:11;5.20;;;2.40;;
65393;SDS011;52002;49.760;6.512;2023-07-02T01:21:38;7.70;;;2.80;;
65393;SDS011;52002;49.760;6.512;2023-07-02T01:24:05;8.30;;;2.30;;
65393;SDS011;52002;49.760;6.512;2023-07-02T01:26:31;6.60;;;2.70;;
65393;SDS011;52002;49.760;6.512;2023-07-02T01:29:15;7.80;;;3.10;;
65393;SDS011;52002;49.760;6.512;2023-07-02T01:31:44;10.70;;;2.90;;
65393;SDS011;52002;49.760;6.512;2023-07-02T01:34:11;5.40;;;2.50;;
65393;SDS011;52002;49.760;6.512;2023-07-02T01:36:37;10.40;;;3.00;;
65393;SDS011;52002;49.760;6.512;2023-07-02T01:39:03;4.70;;;2.70;;
65393;SDS011;52002;49.760;6.512;2023-07-02T01:41:29;8.00;;;2.70;;
65393;SDS011;52002;49.760;6.512;2023-07-02T01:43:54;5.80;;;2.70;;
65393;SDS011;52002;49.760;6.512;2023-07-02T01:46:20;11.20;;;3.90;;
65393;SDS011;52002;49.760;6.512;2023-07-02T01:48:46;5.30;;;2.60;;
65393;SDS011;52002;49.760;6.512;2023-07-02T01:51:11;6.80;;;2.90;;
65393;SDS011;52002;49.760;6.512;2023-07-02T01:53:38;11.20;;;3.10;;
65393;SDS011;52002;49.760;6.512;2023-07-02T01:56:04;9.30;;;2.90;;
65393;SDS011;52002;49.760;6.512;2023-07-02T01:58:29;11.40;;;3.60;;
65393;SDS011;52002;49.760;6.512;2023-07-02T02:00:54;8.80;;;2.80;;
65393;SDS011;52002;49.760;6.512;2023-07-02T02:03:20;11.60;;;3.20;;
65393;SDS011;52002;49.760;6.512;2023-07-02T02:05:46;8.10;;;3.10;;
65393;SDS011;52002;49.760;6.512;2023-07-02T02:08:11;9.70;;;3.10;;
65393;SDS011;52002;49.760;6.512;2023-07-02T02:10:37;8.80;;;3.20;;
65393;SDS011;52002;49.760;6.512;2023-07-02T02:13:02;6.10;;;2.80;;
65393;SDS011;52002;49.760;6.512;2023-07-02T02:15:27;5.80;;;3.00;;
65393;SDS011;52002;49.760;6.512;2023-07-02T02:17:53;11.20;;;3.50;;
65393;SDS011;52002;49.760;6.512;2023-07-02T02:20:18;7.00;;;3.10;;
65393;SDS011;52002;49.760;6.512;2023-07-02T02:22:43;6.50;;;3.30;;
65393;SDS011;52002;49.760;6.512;2023-07-02T02:25:09;8.50;;;3.40;;
65393;SDS011;52002;49.760;6.512;2023-07-02T02:27:34;5.20;;;3.30;;
65393;SDS011;52002;49.760;6.512;2023-07-02T02:30:00;7.40;;;3.30;;
65393;SDS011;52002;49.760;6.512;2023-07-02T02:32:25;7.90;;;3.50;;
65393;SDS011;52002;49.760;6.512;2023-07-02T02:34:51;6.90;;;3.50;;
65393;SDS011;52002;49.760;6.512;2023-07-02T02:37:16;5.90;;;3.50;;
65393;SDS011;52002;49.760;6.512;2023-07-02T02:39:41;8.40;;;3.40;;
65393;SDS011;52002;49.760;6.512;2023-07-02T02:42:07;8.30;;;2.90;;
65393;SDS011;52002;49.760;6.512;2023-07-02T02:44:32;8.20;;;3.10;;
65393;SDS011;52002;49.760;6.512;2023-07-02T02:46:57;11.90;;;4.10;;
65393;SDS011;52002;49.760;6.512;2023-07-02T02:49:23;11.50;;;4.20;;
65393;SDS011;52002;49.760;6.512;2023-07-02T02:51:48;9.50;;;3.90;;
65393;SDS011;52002;49.760;6.512;2023-07-02T02:54:14;6.80;;;3.80;;
65393;SDS011;52002;49.760;6.512;2023-07-02T02:56:39;10.40;;;3.70;;
65393;SDS011;52002;49.760;6.512;2023-07-02T02:59:05;10.50;;;4.30;;
65393;SDS011;52002;49.760;6.512;2023-07-02T03:01:30;10.90;;;4.20;;
65393;SDS011;52002;49.760;6.512;2023-07-02T03:03:57;11.80;;;4.20;;
65393;SDS011;52002;49.760;6.512;2023-07-02T03:06:23;16.10;;;4.50;;
65393;SDS011;52002;49.760;6.512;2023-07-02T03:08:49;16.00;;;4.70;;
65393;SDS011;52002;49.760;6.512;2023-07-02T03:11:14;9.80;;;4.60;;
65393;SDS011;52002;49.760;6.512;2023-07-02T03:13:39;11.40;;;4.60;;
65393;SDS011;52002;49.760;6.512;2023-07-02T03:16:05;10.50;;;4.40;;
65393;SDS011;52002;49.760;6.512;2023-07-02T03:18:31;12.00;;;5.20;;
65393;SDS011;52002;49.760;6.512;2023-07-02T03:20:56;8.20;;;4.50;;
65393;SDS011;52002;49.760;6.512;2023-07-02T03:23:22;12.60;;;5.20;;
65393;SDS011;52002;49.760;6.512;2023-07-02T03:25:48;12.70;;;4.50;;
65393;SDS011;52002;49.760;6.512;2023-07-02T03:28:13;13.10;;;5.20;;
65393;SDS011;52002;49.760;6.512;2023-07-02T03:30:39;11.40;;;4.90;;
65393;SDS011;52002;49.760;6.512;2023-07-02T03:33:04;13.90;;;5.30;;
65393;SDS011;52002;49.760;6.512;2023-07-02T03:35:29;22.00;;;5.80;;
65393;SDS011;52002;49.760;6.512;2023-07-02T03:37:55;14.90;;;6.00;;
65393;SDS011;52002;49.760;6.512;2023-07-02T03:40:22;12.30;;;5.90;;
65393;SDS011;52002;49.760;6.512;2023-07-02T03:42:48;18.30;;;6.00;;
65393;SDS011;52002;49.760;6.512;2023-07-02T03:45:13;14.20;;;5.90;;
65393;SDS011;52002;49.760;6.512;2023-07-02T03:47:39;12.90;;;5.40;;
65393;SDS011;52002;49.760;6.512;2023-07-02T03:50:04;12.40;;;5.90;;
65393;SDS011;52002;49.760;6.512;2023-07-02T03:52:30;19.40;;;6.10;;
65393;SDS011;52002;49.760;6.512;2023-07-02T03:54:55;13.90;;;6.90;;
65393;SDS011;52002;49.760;6.512;2023-07-02T03:57:20;14.60;;;5.80;;
65393;SDS011;52002;49.760;6.512;2023-07-02T03:59:46;15.20;;;6.60;;
65393;SDS011;52002;49.760;6.512;2023-07-02T04:02:11;12.20;;;6.80;;
65393;SDS011;52002;49.760;6.512;2023-07-02T04:04:36;13.50;;;6.70;;
65393;SDS011;52002;49.760;6.512;2023-07-02T04:07:02;18.30;;;7.60;;
65393;SDS011;52002;49.760;6.512;2023-07-02T04:09:27;16.20;;;8.10;;
65393;SDS011;52002;49.760;6.512;2023-07-02T04:11:53;16.60;;;7.70;;
65393;SDS011;52002;49.760;6.512;2023-07-02T04:14:18;22.10;;;9.00;;
65393;SDS011;52002;49.760;6.512;2023-07-02T04:16:44;19.00;;;8.60;;
65393;SDS011;52002;49.760;6.512;2023-07-02T04:19:10;23.30;;;8.50;;
65393;SDS011;52002;49.760;6.512;2023-07-02T04:21:35;14.80;;;7.60;;
65393;SDS011;52002;49.760;6.512;2023-07-02T04:24:01;21.30;;;8.90;;
65393;SDS011;52002;49.760;6.512;2023-07-02T04:26:27;18.50;;;8.80;;
65393;SDS011;52002;49.760;6.512;2023-07-02T04:28:53;19.90;;;9.10;;
65393;SDS011;52002;49.760;6.512;2023-07-02T04:31:20;20.90;;;8.90;;
65393;SDS011;52002;49.760;6.512;2023-07-02T04:33:46;16.20;;;8.10;;
65393;SDS011;52002;49.760;6.512;2023-07-02T04:36:11;20.30;;;8.50;;
65393;SDS011;52002;49.760;6.512;2023-07-02T04:38:37;19.90;;;8.70;;
65393;SDS011;52002;49.760;6.512;2023-07-02T04:41:04;18.70;;;9.40;;
65393;SDS011;52002;49.760;6.512;2023-07-02T04:43:33;23.30;;;9.60;;
65393;SDS011;52002;49.760;6.512;2023-07-02T04:45:58;22.40;;;9.40;;
65393;SDS011;52002;49.760;6.512;2023-07-02T04:48:24;24.00;;;9.40;;
65393;SDS011;52002;49.760;6.512;2023-07-02T04:50:50;20.20;;;9.60;;
65393;SDS011;52002;49.760;6.512;2023-07-02T04:53:16;21.40;;;9.60;;
65393;SDS011;52002;49.760;6.512;2023-07-02T04:55:42;27.00;;;10.70;;
65393;SDS011;52002;49.760;6.512;2023-07-02T04:58:08;21.40;;;10.30;;
65393;SDS011;52002;49.760;6.512;2023-07-02T05:00:33;24.90;;;10.60;;
65393;SDS011;52002;49.760;6.512;2023-07-02T05:02:59;22.10;;;10.90;;
65393;SDS011;52002;49.760;6.512;2023-07-02T05:05:24;29.30;;;10.50;;
65393;SDS011;52002;49.760;6.512;2023-07-02T05:07:49;25.00;;;11.60;;
65393;SDS011;52002;49.760;6.512;2023-07-02T05:10:14;24.40;;;11.70;;
65393;SDS011;52002;49.760;6.512;2023-07-02T05:12:40;26.20;;;12.30;;
65393;SDS011;52002;49.760;6.512;2023-07-02T05:15:05;30.40;;;11.50;;
65393;SDS011;52002;49.760;6.512;2023-07-02T05:17:31;24.70;;;11.20;;
65393;SDS011;52002;49.760;6.512;2023-07-02T05:20:00;30.30;;;12.30;;
65393;SDS011;52002;49.760;6.512;2023-07-02T05:22:26;25.60;;;11.90;;
65393;SDS011;52002;49.760;6.512;2023-07-02T05:24:51;30.80;;;12.40;;
65393;SDS011;52002;49.760;6.512;2023-07-02T05:27:16;23.90;;;12.70;;
65393;SDS011;52002;49.760;6.512;2023-07-02T05:29:42;26.10;;;12.80;;
65393;SDS011;52002;49.760;6.512;2023-07-02T05:32:08;23.10;;;13.20;;
65393;SDS011;52002;49.760;6.512;2023-07-02T05:34:34;22.90;;;13.00;;
65393;SDS011;52002;49.760;6.512;2023-07-02T05:36:59;25.10;;;13.30;;
65393;SDS011;52002;49.760;6.512;2023-07-02T05:39:24;26.80;;;13.70;;
65393;SDS011;52002;49.760;6.512;2023-07-02T05:41:50;23.50;;;13.50;;
65393;SDS011;52002;49.760;6.512;2023-07-02T05:44:16;30.60;;;14.50;;
65393;SDS011;52002;49.760;6.512;2023-07-02T05:46:41;24.00;;;14.10;;
65393;SDS011;52002;49.760;6.512;2023-07-02T05:49:06;22.30;;;13.20;;
65393;SDS011;52002;49.760;6.512;2023-07-02T05:51:32;23.80;;;13.10;;
65393;SDS011;52002;49.760;6.512;2023-07-02T05:53:57;26.60;;;14.10;;
65393;SDS011;52002;49.760;6.512;2023-07-02T05:56:23;30.30;;;14.80;;
65393;SDS011;52002;49.760;6.512;2023-07-02T05:58:48;28.50;;;13.60;;
65393;SDS011;52002;49.760;6.512;2023-07-02T06:01:14;28.20;;;14.20;;
65393;SDS011;52002;49.760;6.512;2023-07-02T06:03:40;29.80;;;14.70;;
65393;SDS011;52002;49.760;6.512;2023-07-02T06:06:05;29.50;;;14.20;;
65393;SDS011;52002;49.760;6.512;2023-07-02T06:08:31;27.90;;;15.00;;
65393;SDS011;52002;49.760;6.512;2023-07-02T06:10:56;30.90;;;14.60;;
65393;SDS011;52002;49.760;6.512;2023-07-02T06:13:21;31.30;;;15.00;;
65393;SDS011;52002;49.760;6.512;2023-07-02T06:15:47;31.70;;;14.80;;
65393;SDS011;52002;49.760;6.512;2023-07-02T06:18:12;32.40;;;15.10;;
65393;SDS011;52002;49.760;6.512;2023-07-02T06:20:38;30.70;;;14.40;;
65393;SDS011;52002;49.760;6.512;2023-07-02T06:23:03;29.90;;;15.10;;
65393;SDS011;52002;49.760;6.512;2023-07-02T06:25:28;31.30;;;15.00;;
65393;SDS011;52002;49.760;6.512;2023-07-02T06:27:54;34.10;;;14.80;;
65393;SDS011;52002;49.760;6.512;2023-07-02T06:30:23;29.50;;;15.00;;
65393;SDS011;52002;49.760;6.512;2023-07-02T06:32:51;24.60;;;14.00;;
65393;SDS011;52002;49.760;6.512;2023-07-02T06:35:17;28.60;;;14.20;;
65393;SDS011;52002;49.760;6.512;2023-07-02T06:37:43;28.70;;;14.60;;
65393;SDS011;52002;49.760;6.512;2023-07-02T06:40:09;28.10;;;14.70;;
65393;SDS011;52002;49.760;6.512;2023-07-02T06:42:34;27.90;;;14.90;;
65393;SDS011;52002;49.760;6.512;2023-07-02T06:45:03;28.10;;;14.70;;
65393;SDS011;52002;49.760;6.512;2023-07-02T06:47:29;28.50;;;14.80;;
65393;SDS011;52002;49.760;6.512;2023-07-02T06:49:54;32.60;;;15.80;;
65393;SDS011;52002;49.760;6.512;2023-07-02T06:52:20;32.90;;;15.30;;
65393;SDS011;52002;49.760;6.512;2023-07-02T06:54:45;30.20;;;14.90;;
65393;SDS011;52002;49.760;6.512;2023-07-02T06:57:12;28.00;;;15.40;;
65393;SDS011;52002;49.760;6.512;2023-07-02T06:59:38;33.40;;;15.20;;
65393;SDS011;52002;49.760;6.512;2023-07-02T07:02:03;29.50;;;15.70;;
65393;SDS011;52002;49.760;6.512;2023-07-02T07:04:28;27.30;;;15.90;;
65393;SDS011;52002;49.760;6.512;2023-07-02T07:06:54;35.10;;;16.40;;
65393;SDS011;52002;49.760;6.512;2023-07-02T07:09:20;34.90;;;17.10;;
65393;SDS011;52002;49.760;6.512;2023-07-02T07:11:46;26.60;;;16.30;;
65393;SDS011;52002;49.760;6.512;2023-07-02T07:14:12;25.90;;;15.80;;
65393;SDS011;52002;49.760;6.512;2023-07-02T07:16:37;28.20;;;16.70;;
65393;SDS011;52002;49.760;6.512;2023-07-02T07:19:02;23.70;;;15.00;;
65393;SDS011;52002;49.760;6.512;2023-07-02T07:21:28;29.00;;;16.20;;
65393;SDS011;52002;49.760;6.512;2023-07-02T07:23:53;28.40;;;16.50;;
65393;SDS011;52002;49.760;6.512;2023-07-02T07:26:19;33.70;;;16.00;;
65393;SDS011;52002;49.760;6.512;2023-07-02T07:28:44;37.80;;;16.90;;
65393;SDS011;52002;49.760;6.512;2023-07-02T07:31:10;27.50;;;16.30;;
65393;SDS011;52002;49.760;6.512;2023-07-02T07:33:35;25.90;;;15.90;;
65393;SDS011;52002;49.760;6.512;2023-07-02T07:36:00;30.20;;;16.80;;
65393;SDS011;52002;49.760;6.512;2023-07-02T07:38:26;33.30;;;16.80;;
65393;SDS011;52002;49.760;6.512;2023-07-02T07:40:51;34.90;;;17.50;;
65393;SDS011;52002;49.760;6.512;2023-07-02T07:43:16;30.10;;;16.70;;
65393;SDS011;52002;49.760;6.512;2023-07-02T07:45:42;30.60;;;16.10;;
65393;SDS011;52002;49.760;6.512;2023-07-02T07:48:07;26.70;;;16.20;;
65393;SDS011;52002;49.760;6.512;2023-07-02T07:50:32;28.60;;;16.50;;
65393;SDS011;52002;49.760;6.512;2023-07-02T07:52:58;34.70;;;18.10;;
65393;SDS011;52002;49.760;6.512;2023-07-02T07:55:24;26.60;;;16.10;;
65393;SDS011;52002;49.760;6.512;2023-07-02T07:57:49;35.80;;;17.30;;
65393;SDS011;52002;49.760;6.512;2023-07-02T08:00:15;31.30;;;17.00;;
65393;SDS011;52002;49.760;6.512;2023-07-02T08:02:42;31.60;;;16.40;;
65393;SDS011;52002;49.760;6.512;2023-07-02T08:05:08;37.30;;;16.40;;
65393;SDS011;52002;49.760;6.512;2023-07-02T08:07:34;32.60;;;16.90;;
65393;SDS011;52002;49.760;6.512;2023-07-02T08:10:00;35.70;;;17.60;;
65393;SDS011;52002;49.760;6.512;2023-07-02T08:12:27;31.20;;;15.90;;
65393;SDS011;52002;49.760;6.512;2023-07-02T08:14:54;35.70;;;17.30;;
65393;SDS011;52002;49.760;6.512;2023-07-02T08:17:20;28.50;;;16.30;;
65393;SDS011;52002;49.760;6.512;2023-07-02T08:19:46;32.50;;;16.60;;
65393;SDS011;52002;49.760;6.512;2023-07-02T08:22:11;28.40;;;15.80;;
65393;SDS011;52002;49.760;6.512;2023-07-02T08:24:37;29.30;;;16.10;;
65393;SDS011;52002;49.760;6.512;2023-07-02T08:27:03;28.10;;;15.60;;
65393;SDS011;52002;49.760;6.512;2023-07-02T08:29:29;30.70;;;15.50;;
65393;SDS011;52002;49.760;6.512;2023-07-02T08:31:55;31.00;;;15.60;;
65393;SDS011;52002;49.760;6.512;2023-07-02T08:34:21;28.80;;;15.30;;
65393;SDS011;52002;49.760;6.512;2023-07-02T08:36:47;28.80;;;16.60;;
65393;SDS011;52002;49.760;6.512;2023-07-02T08:39:12;28.20;;;15.30;;
65393;SDS011;52002;49.760;6.512;2023-07-02T08:41:44;30.20;;;15.80;;
65393;SDS011;52002;49.760;6.512;2023-07-02T08:44:14;34.50;;;15.80;;
65393;SDS011;52002;49.760;6.512;2023-07-02T08:46:44;31.30;;;16.20;;
65393;SDS011;52002;49.760;6.512;2023-07-02T08:49:09;30.00;;;16.40;;
65393;SDS011;52002;49.760;6.512;2023-07-02T08:51:35;25.90;;;14.80;;
65393;SDS011;52002;49.760;6.512;2023-07-02T08:54:02;26.90;;;14.00;;
65393;SDS011;52002;49.760;6.512;2023-07-02T08:56:28;24.10;;;13.90;;
65393;SDS011;52002;49.760;6.512;2023-07-02T08:58:54;23.90;;;14.70;;
65393;SDS011;52002;49.760;6.512;2023-07-02T09:01:19;31.10;;;15.60;;
65393;SDS011;52002;49.760;6.512;2023-07-02T09:03:45;28.90;;;14.90;;
65393;SDS011;52002;49.760;6.512;2023-07-02T09:06:11;28.10;;;14.50;;
65393;SDS011;52002;49.760;6.512;2023-07-02T09:08:37;31.00;;;15.30;;
65393;SDS011;52002;49.760;6.512;2023-07-02T09:11:07;25.10;;;14.50;;
65393;SDS011;52002;49.760;6.512;2023-07-02T09:13:50;30.90;;;14.90;;
65393;SDS011;52002;49.760;6.512;2023-07-02T09:19:02;26.80;;;14.00;;
65393;SDS011;52002;49.760;6.512;2023-07-02T09:21:37;29.10;;;14.00;;
65393;SDS011;52002;49.760;6.512;2023-07-02T09:24:14;26.10;;;13.90;;
65393;SDS011;52002;49.760;6.512;2023-07-02T09:26:51;26.10;;;14.10;;
65393;SDS011;52002;49.760;6.512;2023-07-02T09:29:25;29.20;;;13.70;;
65393;SDS011;52002;49.760;6.512;2023-07-02T09:31:57;26.70;;;13.70;;
65393;SDS011;52002;49.760;6.512;2023-07-02T09:34:30;32.40;;;14.20;;
65393;SDS011;52002;49.760;6.512;2023-07-02T09:36:57;32.00;;;13.60;;
65393;SDS011;52002;49.760;6.512;2023-07-02T09:39:29;35.60;;;15.60;;
65393;SDS011;52002;49.760;6.512;2023-07-02T09:41:56;25.90;;;13.50;;
65393;SDS011;52002;49.760;6.512;2023-07-02T09:44:25;25.10;;;14.00;;
65393;SDS011;52002;49.760;6.512;2023-07-02T09:46:58;29.90;;;14.40;;
65393;SDS011;52002;49.760;6.512;2023-07-02T09:49:31;28.40;;;13.90;;
65393;SDS011;52002;49.760;6.512;2023-07-02T09:52:02;31.10;;;13.90;;
65393;SDS011;52002;49.760;6.512;2023-07-02T09:54:32;29.40;;;13.70;;
65393;SDS011;52002;49.760;6.512;2023-07-02T09:56:58;27.40;;;13.10;;
65393;SDS011;52002;49.760;6.512;2023-07-02T09:59:24;25.10;;;13.10;;
65393;SDS011;52002;49.760;6.512;2023-07-02T10:01:50;24.90;;;12.60;;
65393;SDS011;52002;49.760;6.512;2023-07-02T10:04:17;22.30;;;12.10;;
65393;SDS011;52002;49.760;6.512;2023-07-02T10:06:47;25.70;;;12.50;;
65393;SDS011;52002;49.760;6.512;2023-07-02T10:09:14;30.10;;;13.20;;
65393;SDS011;52002;49.760;6.512;2023-07-02T10:11:40;26.00;;;13.10;;
65393;SDS011;52002;49.760;6.512;2023-07-02T10:14:05;25.00;;;12.20;;
65393;SDS011;52002;49.760;6.512;2023-07-02T10:16:30;22.50;;;12.50;;
65393;SDS011;52002;49.760;6.512;2023-07-02T10:19:10;25.50;;;12.70;;
65393;SDS011;52002;49.760;6.512;2023-07-02T10:21:36;21.00;;;12.10;;
65393;SDS011;52002;49.760;6.512;2023-07-02T10:24:12;30.80;;;11.90;;
65393;SDS011;52002;49.760;6.512;2023-07-02T10:26:39;24.70;;;11.90;;
65393;SDS011;52002;49.760;6.512;2023-07-02T10:29:18;29.00;;;13.00;;
65393;SDS011;52002;49.760;6.512;2023-07-02T10:31:48;20.80;;;11.20;;
65393;SDS011;52002;49.760;6.512;2023-07-02T10:34:14;24.00;;;12.40;;
65393;SDS011;52002;49.760;6.512;2023-07-02T10:36:39;25.00;;;11.50;;
65393;SDS011;52002;49.760;6.512;2023-07-02T10:39:05;24.40;;;11.10;;
65393;SDS011;52002;49.760;6.512;2023-07-02T10:41:30;19.40;;;11.50;;
65393;SDS011;52002;49.760;6.512;2023-07-02T10:44:08;20.30;;;10.90;;
65393;SDS011;52002;49.760;6.512;2023-07-02T10:46:34;25.20;;;10.90;;
65393;SDS011;52002;49.760;6.512;2023-07-02T10:49:07;24.90;;;11.30;;
65393;SDS011;52002;49.760;6.512;2023-07-02T10:51:34;21.20;;;10.90;;
65393;SDS011;52002;49.760;6.512;2023-07-02T10:54:00;19.70;;;10.10;;
65393;SDS011;52002;49.760;6.512;2023-07-02T10:56:29;16.70;;;9.50;;
65393;SDS011;52002;49.760;6.512;2023-07-02T10:58:54;18.90;;;10.40;;
65393;SDS011;52002;49.760;6.512;2023-07-02T11:04:02;24.80;;;10.60;;
65393;SDS011;52002;49.760;6.512;2023-07-02T11:06:29;22.60;;;10.40;;
65393;SDS011;52002;49.760;6.512;2023-07-02T11:08:57;21.00;;;9.90;;
65393;SDS011;52002;49.760;6.512;2023-07-02T11:11:23;15.80;;;9.50;;
65393;SDS011;52002;49.760;6.512;2023-07-02T11:13:49;22.50;;;10.50;;
65393;SDS011;52002;49.760;6.512;2023-07-02T11:16:24;22.70;;;9.80;;
65393;SDS011;52002;49.760;6.512;2023-07-02T11:18:54;20.40;;;10.10;;
65393;SDS011;52002;49.760;6.512;2023-07-02T11:21:33;17.00;;;9.80;;
65393;SDS011;52002;49.760;6.512;2023-07-02T11:24:02;18.80;;;10.90;;
65393;SDS011;52002;49.760;6.512;2023-07-02T11:26:35;21.10;;;10.40;;
65393;SDS011;52002;49.760;6.512;2023-07-02T11:29:03;19.60;;;9.90;;
65393;SDS011;52002;49.760;6.512;2023-07-02T11:31:35;21.90;;;10.30;;
65393;SDS011;52002;49.760;6.512;2023-07-02T11:34:01;21.90;;;11.40;;
65393;SDS011;52002;49.760;6.512;2023-07-02T11:36:26;22.20;;;10.70;;
65393;SDS011;52002;49.760;6.512;2023-07-02T11:38:52;19.60;;;10.50;;
65393;SDS011;52002;49.760;6.512;2023-07-02T11:41:20;24.30;;;11.20;;
65393;SDS011;52002;49.760;6.512;2023-07-02T11:43:46;18.20;;;10.40;;
65393;SDS011;52002;49.760;6.512;2023-07-02T11:46:13;18.90;;;10.70;;
65393;SDS011;52002;49.760;6.512;2023-07-02T11:48:38;20.00;;;10.40;;
65393;SDS011;52002;49.760;6.512;2023-07-02T11:51:04;18.20;;;10.30;;
65393;SDS011;52002;49.760;6.512;2023-07-02T11:53:29;17.70;;;10.20;;
65393;SDS011;52002;49.760;6.512;2023-07-02T11:55:54;18.80;;;10.00;;
65393;SDS011;52002;49.760;6.512;2023-07-02T11:58:20;20.70;;;9.90;;
65393;SDS011;52002;49.760;6.512;2023-07-02T12:00:45;19.80;;;9.80;;
65393;SDS011;52002;49.760;6.512;2023-07-02T12:03:10;19.40;;;9.60;;
65393;SDS011;52002;49.760;6.512;2023-07-02T12:05:37;17.60;;;9.90;;
65393;SDS011;52002;49.760;6.512;2023-07-02T12:08:02;22.90;;;10.80;;
65393;SDS011;52002;49.760;6.512;2023-07-02T12:10:28;15.10;;;9.50;;
65393;SDS011;52002;49.760;6.512;2023-07-02T12:12:54;25.40;;;9.80;;
65393;SDS011;52002;49.760;6.512;2023-07-02T12:15:19;21.90;;;10.30;;
65393;SDS011;52002;49.760;6.512;2023-07-02T12:17:44;17.60;;;9.80;;
65393;SDS011;52002;49.760;6.512;2023-07-02T12:20:10;19.10;;;9.40;;
65393;SDS011;52002;49.760;6.512;2023-07-02T12:22:35;17.20;;;9.80;;
65393;SDS011;52002;49.760;6.512;2023-07-02T12:25:01;17.40;;;10.20;;
65393;SDS011;52002;49.760;6.512;2023-07-02T12:27:26;19.80;;;9.90;;
65393;SDS011;52002;49.760;6.512;2023-07-02T12:29:52;17.00;;;9.50;;
65393;SDS011;52002;49.760;6.512;2023-07-02T12:32:18;21.20;;;9.90;;
65393;SDS011;52002;49.760;6.512;2023-07-02T12:34:43;17.70;;;8.60;;
65393;SDS011;52002;49.760;6.512;2023-07-02T12:37:08;20.60;;;9.70;;
65393;SDS011;52002;49.760;6.512;2023-07-02T12:39:34;19.10;;;9.70;;
65393;SDS011;52002;49.760;6.512;2023-07-02T12:42:00;15.80;;;9.60;;
65393;SDS011;52002;49.760;6.512;2023-07-02T12:44:25;16.20;;;8.70;;
65393;SDS011;52002;49.760;6.512;2023-07-02T12:46:50;19.20;;;10.00;;
65393;SDS011;52002;49.760;6.512;2023-07-02T12:49:16;17.00;;;10.20;;
65393;SDS011;52002;49.760;6.512;2023-07-02T12:51:41;21.90;;;10.70;;
65393;SDS011;52002;49.760;6.512;2023-07-02T12:54:07;21.40;;;10.00;;
65393;SDS011;52002;49.760;6.512;2023-07-02T12:56:32;25.80;;;11.00;;
65393;SDS011;52002;49.760;6.512;2023-07-02T12:58:57;16.30;;;10.10;;
65393;SDS011;52002;49.760;6.512;2023-07-02T13:01:23;18.20;;;9.20;;
65393;SDS011;52002;49.760;6.512;2023-07-02T13:03:49;19.50;;;9.30;;
65393;SDS011;52002;49.760;6.512;2023-07-02T13:06:15;19.50;;;9.50;;
65393;SDS011;52002;49.760;6.512;2023-07-02T13:08:41;22.70;;;10.90;;
65393;SDS011;52002;49.760;6.512;2023-07-02T13:11:07;23.10;;;10.20;;
65393;SDS011;52002;49.760;6.512;2023-07-02T13:13:34;20.40;;;10.10;;
65393;SDS011;52002;49.760;6.512;2023-07-02T13:16:01;18.20;;;10.00;;
65393;SDS011;52002;49.760;6.512;2023-07-02T13:18:27;23.50;;;10.10;;
65393;SDS011;52002;49.760;6.512;2023-07-02T13:20:52;20.00;;;9.60;;
65393;SDS011;52002;49.760;6.512;2023-07-02T13:23:18;21.50;;;9.60;;
65393;SDS011;52002;49.760;6.512;2023-07-02T13:25:43;70.40;;;11.00;;
65393;SDS011;52002;49.760;6.512;2023-07-02T13:28:09;20.40;;;9.60;;
65393;SDS011;52002;49.760;6.512;2023-07-02T13:30:34;20.60;;;9.30;;
65393;SDS011;52002;49.760;6.512;2023-07-02T13:32:59;19.20;;;9.20;;
65393;SDS011;52002;49.760;6.512;2023-07-02T13:35:25;20.20;;;9.60;;
65393;SDS011;52002;49.760;6.512;2023-07-02T13:37:50;25.10;;;10.50;;
65393;SDS011;52002;49.760;6.512;2023-07-02T13:40:15;23.30;;;9.50;;
65393;SDS011;52002;49.760;6.512;2023-07-02T13:42:41;17.30;;;9.50;;
65393;SDS011;52002;49.760;6.512;2023-07-02T13:45:08;18.30;;;9.30;;
65393;SDS011;52002;49.760;6.512;2023-07-02T13:47:34;23.10;;;9.60;;
65393;SDS011;52002;49.760;6.512;2023-07-02T13:50:01;19.90;;;9.20;;
65393;SDS011;52002;49.760;6.512;2023-07-02T13:52:28;20.40;;;9.70;;
65393;SDS011;52002;49.760;6.512;2023-07-02T13:54:54;19.00;;;9.50;;
65393;SDS011;52002;49.760;6.512;2023-07-02T13:57:20;20.10;;;9.70;;
65393;SDS011;52002;49.760;6.512;2023-07-02T13:59:45;20.80;;;9.10;;
65393;SDS011;52002;49.760;6.512;2023-07-02T14:02:10;20.00;;;10.00;;
65393;SDS011;52002;49.760;6.512;2023-07-02T14:04:36;20.60;;;9.30;;
65393;SDS011;52002;49.760;6.512;2023-07-02T14:07:02;21.70;;;10.30;;
65393;SDS011;52002;49.760;6.512;2023-07-02T14:09:28;19.70;;;9.60;;
65393;SDS011;52002;49.760;6.512;2023-07-02T14:11:54;23.30;;;9.40;;
65393;SDS011;52002;49.760;6.512;2023-07-02T14:14:19;17.70;;;9.50;;
65393;SDS011;52002;49.760;6.512;2023-07-02T14:16:44;20.60;;;9.80;;
65393;SDS011;52002;49.760;6.512;2023-07-02T14:19:10;21.10;;;9.30;;
65393;SDS011;52002;49.760;6.512;2023-07-02T14:21:37;22.30;;;9.70;;
65393;SDS011;52002;49.760;6.512;2023-07-02T14:24:03;20.40;;;9.60;;
65393;SDS011;52002;49.760;6.512;2023-07-02T14:26:29;20.40;;;9.30;;
65393;SDS011;52002;49.760;6.512;2023-07-02T14:28:55;17.60;;;9.20;;
65393;SDS011;52002;49.760;6.512;2023-07-02T14:31:20;20.80;;;8.30;;
65393;SDS011;52002;49.760;6.512;2023-07-02T14:33:46;18.40;;;8.90;;